Terminal Aerodrome Forecast
Issued by NWS Riverton, WY

Home | Current Version | Previous Version | Text Only | Print | Product List | Glossary On
Versions: 1 2 3 4 5 6 7 8 9 10 11 12
000
FTUS45 KRIW 292300
TAFRIW
TAF
KRIW 292337Z 3000/3024 08006KT P6SM BKN200
     FM300500 VRB04KT P6SM VCFG FEW003 SCT200
     FM301700 VRB04KT P6SM SCT090 BKN200=

USA.gov is the U.S. government's official web portal to all federal, state and local government web resources and services.